createdAt,value
2023-04-28T00:00:47.387Z,20.70
2023-04-28T00:01:47.440Z,20.68
2023-04-28T00:02:47.541Z,20.68
2023-04-28T00:03:47.607Z,20.68
2023-04-28T00:04:47.891Z,20.67
2023-04-28T00:05:47.737Z,20.66
2023-04-28T00:06:47.741Z,20.65
2023-04-28T00:07:47.841Z,20.66
2023-04-28T00:08:47.863Z,20.66
2023-04-28T00:09:47.927Z,20.67
2023-04-28T00:10:48.001Z,20.69
2023-04-28T00:11:48.054Z,20.70
2023-04-28T00:12:48.133Z,20.70
2023-04-28T00:13:48.152Z,20.69
2023-04-28T00:14:48.241Z,20.69
2023-04-28T00:15:48.324Z,20.67
2023-04-28T00:16:48.485Z,20.64
2023-04-28T00:17:48.483Z,20.63
2023-04-28T00:18:48.445Z,20.62
2023-04-28T00:19:48.528Z,20.61
2023-04-28T00:20:48.561Z,20.62
2023-04-28T00:21:48.609Z,20.61
2023-04-28T00:22:48.650Z,20.60
2023-04-28T00:23:48.694Z,20.60
2023-04-28T00:24:48.742Z,20.59
2023-04-28T00:25:48.795Z,20.58
2023-04-28T00:26:48.828Z,20.56
2023-04-28T00:27:48.882Z,20.53
2023-04-28T00:28:48.901Z,20.53
2023-04-28T00:29:48.940Z,20.51
2023-04-28T00:30:48.941Z,20.51
2023-04-28T00:31:49.074Z,20.49
2023-04-28T00:32:48.995Z,20.48
2023-04-28T00:33:48.975Z,20.48
2023-04-28T00:34:48.990Z,20.47
2023-04-28T00:35:49.056Z,20.46
2023-04-28T00:36:49.066Z,20.45
2023-04-28T00:37:49.032Z,20.49
2023-04-28T00:38:49.068Z,20.49
2023-04-28T00:39:49.096Z,20.49
2023-04-28T00:40:49.059Z,20.49
2023-04-28T00:41:49.071Z,20.47
2023-04-28T00:42:49.046Z,20.47
2023-04-28T00:43:49.059Z,20.46
2023-04-28T00:44:49.042Z,20.45
2023-04-28T00:45:49.057Z,20.43
2023-04-28T00:46:49.058Z,20.43
2023-04-28T00:47:49.179Z,20.43
2023-04-28T00:48:49.040Z,20.44
2023-04-28T00:49:49.072Z,20.45
2023-04-28T00:50:49.090Z,20.47
2023-04-28T00:51:49.103Z,20.48
2023-04-28T00:52:49.082Z,20.46
2023-04-28T00:53:49.094Z,20.46
2023-04-28T00:54:49.088Z,20.46
2023-04-28T00:55:49.123Z,20.45
2023-04-28T00:56:49.071Z,20.44
2023-04-28T00:57:49.112Z,20.43
2023-04-28T00:58:49.081Z,20.42
2023-04-28T00:59:49.109Z,20.43
2023-04-28T01:00:49.116Z,20.44
2023-04-28T01:01:49.092Z,20.43
2023-04-28T01:02:49.153Z,20.43
2023-04-28T01:03:49.354Z,20.43
2023-04-28T01:04:49.081Z,20.43
2023-04-28T01:05:49.087Z,20.42
2023-04-28T01:06:49.071Z,20.42
2023-04-28T01:07:49.099Z,20.41
2023-04-28T01:08:49.096Z,20.39
2023-04-28T01:09:49.069Z,20.39
2023-04-28T01:10:49.067Z,20.39
2023-04-28T01:11:49.106Z,20.39
2023-04-28T01:12:49.066Z,20.40
2023-04-28T01:13:49.063Z,20.40
2023-04-28T01:14:49.074Z,20.39
2023-04-28T01:15:49.062Z,20.38
2023-04-28T01:16:49.145Z,20.38
2023-04-28T01:17:49.069Z,20.38
2023-04-28T01:18:49.021Z,20.37
2023-04-28T01:19:49.053Z,20.37
2023-04-28T01:20:49.052Z,20.37
2023-04-28T01:21:49.015Z,20.36
2023-04-28T01:22:49.029Z,20.36
2023-04-28T01:23:49.049Z,20.35
2023-04-28T01:24:49.048Z,20.35
2023-04-28T01:25:48.985Z,20.35
2023-04-28T01:26:49.011Z,20.35
2023-04-28T01:27:49.017Z,20.34
2023-04-28T01:28:49.020Z,20.34
2023-04-28T01:29:48.990Z,20.34
2023-04-28T01:30:49.004Z,20.33
2023-04-28T01:31:49.104Z,20.33
2023-04-28T01:32:49.018Z,20.31
2023-04-28T01:33:49.008Z,20.31
2023-04-28T01:34:48.983Z,20.29
2023-04-28T01:35:49.003Z,20.27
2023-04-28T01:36:49.041Z,20.26
2023-04-28T01:37:49.066Z,20.25
2023-04-28T01:38:49.012Z,20.26
2023-04-28T01:39:49.038Z,20.26
2023-04-28T01:40:49.071Z,20.26
2023-04-28T01:41:49.078Z,20.26
2023-04-28T01:42:49.086Z,20.25
2023-04-28T01:43:49.141Z,20.25
2023-04-28T01:44:49.098Z,20.25
2023-04-28T01:45:49.157Z,20.25
2023-04-28T01:46:49.119Z,20.25
2023-04-28T01:47:49.177Z,20.26
2023-04-28T01:48:49.129Z,20.26
2023-04-28T01:49:49.157Z,20.25
2023-04-28T01:50:49.142Z,20.25
2023-04-28T01:51:49.177Z,20.24
2023-04-28T01:52:49.163Z,20.25
2023-04-28T01:53:49.159Z,20.25
2023-04-28T01:54:49.136Z,20.26
2023-04-28T01:55:49.178Z,20.27
2023-04-28T01:56:49.184Z,20.24
2023-04-28T01:57:49.167Z,20.24
2023-04-28T01:58:49.202Z,20.24
2023-04-28T01:59:49.197Z,20.24
2023-04-28T02:00:49.185Z,20.24
2023-04-28T02:01:49.260Z,20.23
2023-04-28T02:02:49.282Z,20.22
2023-04-28T02:03:49.377Z,20.22
2023-04-28T02:04:49.293Z,20.23
2023-04-28T02:05:49.246Z,20.24
2023-04-28T02:06:49.246Z,20.21
2023-04-28T02:07:49.271Z,20.20
2023-04-28T02:08:49.262Z,20.17
2023-04-28T02:09:49.279Z,20.16
2023-04-28T02:10:49.315Z,20.16
2023-04-28T02:11:49.309Z,20.14
2023-04-28T02:12:49.344Z,20.13
2023-04-28T02:13:49.354Z,20.14
2023-04-28T02:14:49.373Z,20.13
2023-04-28T02:15:49.490Z,20.12
2023-04-28T02:16:49.408Z,20.13
2023-04-28T02:17:49.442Z,20.13
2023-04-28T02:18:49.397Z,20.13
2023-04-28T02:19:49.403Z,20.12
2023-04-28T02:20:49.438Z,20.10
2023-04-28T02:21:49.482Z,20.11
2023-04-28T02:22:49.482Z,20.12
2023-04-28T02:23:49.522Z,20.12
2023-04-28T02:24:49.501Z,20.13
2023-04-28T02:25:49.551Z,20.12
2023-04-28T02:26:49.531Z,20.13
2023-04-28T02:27:49.593Z,20.13
2023-04-28T02:28:49.596Z,20.14
2023-04-28T02:29:49.638Z,20.12
2023-04-28T02:30:49.646Z,20.11
2023-04-28T02:31:49.699Z,20.09
2023-04-28T02:32:49.741Z,20.08
2023-04-28T02:33:49.686Z,20.07
2023-04-28T02:34:49.718Z,20.06
2023-04-28T02:35:49.777Z,20.04
2023-04-28T02:36:49.786Z,20.05
2023-04-28T02:37:49.810Z,20.05
2023-04-28T02:38:49.819Z,20.07
2023-04-28T02:39:49.866Z,20.06
2023-04-28T02:40:50.412Z,20.06
2023-04-28T02:41:49.960Z,20.07
2023-04-28T02:42:49.993Z,20.08
2023-04-28T02:43:50.017Z,20.07
2023-04-28T02:44:50.057Z,20.09
2023-04-28T02:45:50.076Z,20.10
2023-04-28T02:46:50.115Z,20.11
2023-04-28T02:47:50.130Z,20.09
2023-04-28T02:48:50.137Z,20.08
2023-04-28T02:49:50.191Z,20.07
2023-04-28T02:50:50.237Z,20.06
2023-04-28T02:51:50.270Z,20.05
2023-04-28T02:52:50.295Z,20.05
2023-04-28T02:53:50.317Z,20.06
2023-04-28T02:54:50.353Z,20.05
2023-04-28T02:55:50.444Z,20.04
2023-04-28T02:56:50.425Z,20.04
2023-04-28T02:57:50.501Z,20.02
2023-04-28T02:58:50.517Z,20.01
2023-04-28T02:59:50.547Z,20.03
2023-04-28T03:00:50.653Z,20.06
2023-04-28T03:01:50.627Z,20.07
2023-04-28T03:02:50.736Z,20.06
2023-04-28T03:03:50.829Z,20.05
2023-04-28T03:04:50.788Z,20.06
2023-04-28T03:05:50.790Z,20.07
2023-04-28T03:06:50.818Z,20.09
2023-04-28T03:07:50.848Z,20.08
2023-04-28T03:08:50.914Z,20.09
2023-04-28T03:09:50.893Z,20.10
2023-04-28T03:10:50.938Z,20.10
2023-04-28T03:11:50.980Z,20.09
2023-04-28T03:12:51.032Z,20.07
2023-04-28T03:13:51.052Z,20.06
2023-04-28T03:14:51.098Z,20.06
2023-04-28T03:15:51.180Z,20.06
2023-04-28T03:16:51.240Z,20.04
2023-04-28T03:17:51.232Z,20.03
2023-04-28T03:18:51.274Z,20.02
2023-04-28T03:19:51.326Z,19.98
2023-04-28T03:20:51.374Z,19.97
2023-04-28T03:21:51.405Z,19.96
2023-04-28T03:22:51.463Z,19.97
2023-04-28T03:23:51.496Z,19.96
2023-04-28T03:24:51.546Z,19.96
2023-04-28T03:25:51.569Z,19.95
2023-04-28T03:26:51.671Z,19.95
2023-04-28T03:27:51.677Z,19.95
2023-04-28T03:28:51.742Z,19.95
2023-04-28T03:29:51.779Z,19.94
2023-04-28T03:30:51.801Z,19.94
2023-04-28T03:31:51.914Z,19.94
2023-04-28T03:32:51.934Z,19.92
2023-04-28T03:33:51.950Z,19.91
2023-04-28T03:34:52.012Z,19.92
2023-04-28T03:35:52.083Z,19.93
2023-04-28T03:36:52.125Z,19.93
2023-04-28T03:37:52.203Z,19.93
2023-04-28T03:38:52.921Z,19.94
2023-04-28T03:39:52.264Z,19.95
2023-04-28T03:40:52.348Z,19.95
2023-04-28T03:41:52.372Z,19.95
2023-04-28T03:42:52.439Z,19.96
2023-04-28T03:43:52.453Z,19.93
2023-04-28T03:44:52.508Z,19.90
2023-04-28T03:45:52.651Z,19.88
2023-04-28T03:46:52.568Z,19.87
2023-04-28T03:47:52.665Z,19.87
2023-04-28T03:48:52.664Z,19.87
2023-04-28T03:49:52.730Z,19.89
2023-04-28T03:50:52.768Z,19.89
2023-04-28T03:51:52.815Z,19.87
2023-04-28T03:52:52.834Z,19.87
2023-04-28T03:53:52.892Z,19.86
2023-04-28T03:54:52.926Z,19.85
2023-04-28T03:55:52.991Z,19.82
2023-04-28T03:56:53.056Z,19.79
2023-04-28T03:57:53.048Z,19.77
2023-04-28T03:58:53.128Z,19.76
2023-04-28T03:59:53.172Z,19.76
2023-04-28T04:00:53.229Z,19.75
2023-04-28T04:01:53.273Z,19.76
2023-04-28T04:02:53.436Z,19.78
2023-04-28T04:03:53.531Z,19.77
2023-04-28T04:04:53.635Z,19.78
2023-04-28T04:05:53.655Z,19.78
2023-04-28T04:06:53.497Z,19.79
2023-04-28T04:07:53.529Z,19.77
2023-04-28T04:08:53.544Z,19.75
2023-04-28T04:09:53.648Z,19.75
2023-04-28T04:10:53.698Z,19.74
2023-04-28T04:11:53.735Z,19.74
2023-04-28T04:12:53.764Z,19.74
2023-04-28T04:13:53.810Z,19.73
2023-04-28T04:14:53.855Z,19.71
2023-04-28T04:15:53.956Z,19.72
2023-04-28T04:16:53.964Z,19.70
2023-04-28T04:17:54.003Z,19.69
2023-04-28T04:18:54.076Z,19.69
2023-04-28T04:19:54.100Z,19.70
2023-04-28T04:20:54.146Z,19.72
2023-04-28T04:21:54.155Z,19.71
2023-04-28T04:22:54.251Z,19.70
2023-04-28T04:23:54.279Z,19.71
2023-04-28T04:24:54.298Z,19.72
2023-04-28T04:25:54.356Z,19.72
2023-04-28T04:26:54.429Z,19.72
2023-04-28T04:27:54.452Z,19.70
2023-04-28T04:28:54.514Z,19.69
2023-04-28T04:29:54.517Z,19.70
2023-04-28T04:30:54.587Z,19.69
2023-04-28T04:31:54.641Z,19.69
2023-04-28T04:32:54.683Z,19.68
2023-04-28T04:33:54.712Z,19.69
2023-04-28T04:34:54.774Z,19.66
2023-04-28T04:35:54.853Z,19.68
2023-04-28T04:36:54.869Z,19.69
2023-04-28T04:37:54.898Z,19.68
2023-04-28T04:38:54.952Z,19.68
2023-04-28T04:39:55.005Z,19.68
2023-04-28T04:40:55.046Z,19.68
2023-04-28T04:41:55.093Z,19.68
2023-04-28T04:42:55.150Z,19.69
2023-04-28T04:43:55.183Z,19.68
2023-04-28T04:44:55.212Z,19.68
2023-04-28T04:45:55.271Z,19.68
2023-04-28T04:46:55.339Z,19.66
2023-04-28T04:47:55.423Z,19.63
2023-04-28T04:48:55.437Z,19.64
2023-04-28T04:49:55.503Z,19.63
2023-04-28T04:50:55.554Z,19.63
2023-04-28T04:51:55.568Z,19.63
2023-04-28T04:52:55.671Z,19.62
2023-04-28T04:53:55.672Z,19.62
2023-04-28T04:54:55.741Z,19.60
2023-04-28T04:55:55.807Z,19.59
2023-04-28T04:56:55.890Z,19.61
2023-04-28T04:57:55.914Z,19.60
2023-04-28T04:58:55.964Z,19.59
2023-04-28T04:59:56.028Z,19.60
2023-04-28T05:00:56.079Z,19.61
2023-04-28T05:01:56.189Z,19.62
2023-04-28T05:02:56.312Z,19.64
2023-04-28T05:03:56.386Z,19.65
2023-04-28T05:05:08.166Z,19.63
2023-04-28T05:05:57.267Z,19.63
2023-04-28T05:06:56.235Z,19.61
2023-04-28T05:07:56.234Z,19.62
2023-04-28T05:08:56.255Z,19.61
2023-04-28T05:09:56.241Z,19.61
2023-04-28T05:10:56.242Z,19.61
2023-04-28T05:11:56.251Z,19.61
2023-04-28T05:12:56.225Z,19.59
2023-04-28T05:13:56.196Z,19.59
2023-04-28T05:14:56.211Z,19.60
2023-04-28T05:15:56.269Z,19.61
2023-04-28T05:16:56.379Z,19.60
2023-04-28T05:17:56.394Z,19.60
2023-04-28T05:18:56.416Z,19.60
2023-04-28T05:19:56.475Z,19.60
2023-04-28T05:20:56.526Z,19.60
2023-04-28T05:21:56.577Z,19.59
2023-04-28T05:22:56.664Z,19.60
2023-04-28T05:23:56.691Z,19.61
2023-04-28T05:24:56.725Z,19.62
2023-04-28T05:25:56.807Z,19.62
2023-04-28T05:26:56.875Z,19.63
2023-04-28T05:27:56.918Z,19.63
2023-04-28T05:28:56.929Z,19.63
2023-04-28T05:29:57.017Z,19.63
2023-04-28T05:30:57.041Z,19.65
2023-04-28T05:31:57.210Z,19.66
2023-04-28T05:32:57.237Z,19.68
2023-04-28T05:33:57.192Z,19.69
2023-04-28T05:34:57.239Z,19.72
2023-04-28T05:35:57.257Z,19.76
2023-04-28T05:36:57.978Z,19.80
2023-04-28T05:37:57.350Z,19.86
2023-04-28T05:38:57.420Z,19.92
2023-04-28T05:39:57.458Z,19.99
2023-04-28T05:40:57.517Z,20.07
2023-04-28T05:41:57.537Z,20.12
2023-04-28T05:42:57.629Z,20.11
2023-04-28T05:43:57.624Z,20.03
2023-04-28T05:44:57.713Z,19.87
2023-04-28T05:45:57.792Z,19.83
2023-04-28T05:46:57.926Z,19.84
2023-04-28T05:47:58.017Z,19.84
2023-04-28T05:48:57.927Z,19.86
2023-04-28T05:49:57.984Z,19.86
2023-04-28T05:50:58.042Z,19.90
2023-04-28T05:51:58.092Z,19.96
2023-04-28T05:52:58.169Z,20.05
2023-04-28T05:53:58.210Z,20.14
2023-04-28T05:54:58.242Z,20.21
2023-04-28T05:55:58.284Z,20.32
2023-04-28T05:57:00.124Z,20.41
2023-04-28T05:57:58.291Z,20.49
2023-04-28T05:58:58.293Z,20.57
2023-04-28T05:59:58.253Z,20.65
2023-04-28T06:00:58.251Z,20.74
2023-04-28T06:01:58.359Z,20.81
2023-04-28T06:02:58.353Z,20.87
2023-04-28T06:03:58.370Z,20.93
2023-04-28T06:04:58.392Z,21.00
2023-04-28T06:05:58.292Z,21.07
2023-04-28T06:06:58.212Z,21.11
2023-04-28T06:07:58.208Z,21.14
2023-04-28T06:08:58.198Z,21.18
2023-04-28T06:10:05.248Z,21.21
2023-04-28T06:10:58.180Z,21.26
2023-04-28T06:11:58.156Z,21.30
2023-04-28T06:12:58.174Z,21.34
2023-04-28T06:13:58.139Z,21.40
2023-04-28T06:14:58.154Z,21.47
2023-04-28T06:15:58.157Z,21.53
2023-04-28T06:16:58.126Z,21.60
2023-04-28T06:17:58.135Z,21.66
2023-04-28T06:18:58.120Z,21.73
2023-04-28T06:19:58.128Z,21.79
2023-04-28T06:20:58.089Z,21.86
2023-04-28T06:21:58.098Z,21.92
2023-04-28T06:22:58.134Z,21.96
2023-04-28T06:23:58.071Z,22.02
2023-04-28T06:24:58.095Z,22.07
2023-04-28T06:25:58.105Z,22.11
2023-04-28T06:26:58.053Z,22.16
2023-04-28T06:27:58.080Z,22.21
2023-04-28T06:28:58.058Z,22.25
2023-04-28T06:29:58.064Z,22.28
2023-04-28T06:30:58.070Z,22.34
2023-04-28T06:31:58.045Z,22.38
2023-04-28T06:32:58.079Z,22.42
2023-04-28T06:33:58.019Z,22.45
2023-04-28T06:34:58.717Z,22.49
2023-04-28T06:35:58.007Z,22.54
2023-04-28T06:36:58.003Z,22.56
2023-04-28T06:37:57.965Z,22.60
2023-04-28T06:38:57.968Z,22.63
2023-04-28T06:39:57.955Z,22.66
2023-04-28T06:40:57.970Z,22.68
2023-04-28T06:41:57.955Z,22.71
2023-04-28T06:42:57.957Z,22.73
2023-04-28T06:43:57.955Z,22.75
2023-04-28T06:44:57.940Z,22.77
2023-04-28T06:45:57.916Z,22.78
2023-04-28T06:46:58.026Z,22.80
2023-04-28T06:47:58.090Z,22.80
2023-04-28T06:48:58.053Z,22.80
2023-04-28T06:49:58.112Z,22.80
2023-04-28T06:50:58.129Z,22.81
2023-04-28T06:51:58.184Z,22.81
2023-04-28T06:52:58.236Z,22.80
2023-04-28T06:53:58.310Z,22.81
2023-04-28T06:54:58.367Z,22.84
2023-04-28T06:55:58.379Z,22.86
2023-04-28T06:56:58.461Z,22.85
2023-04-28T06:57:58.535Z,22.81
2023-04-28T06:58:58.586Z,22.82
2023-04-28T06:59:59.528Z,22.81
2023-04-28T07:00:58.765Z,22.79
2023-04-28T07:01:58.823Z,22.80
2023-04-28T07:02:58.998Z,22.79
2023-04-28T07:03:59.158Z,22.77
2023-04-28T07:04:58.931Z,22.76
2023-04-28T07:05:58.963Z,22.75
2023-04-28T07:06:59.088Z,22.75
2023-04-28T07:07:59.105Z,22.73
2023-04-28T07:08:59.126Z,22.75
2023-04-28T07:09:59.198Z,22.75
2023-04-28T07:10:59.262Z,22.76
2023-04-28T07:11:59.350Z,22.78
2023-04-28T07:12:59.370Z,22.77
2023-04-28T07:13:59.455Z,22.78
2023-04-28T07:14:59.506Z,22.79
2023-04-28T07:15:59.598Z,22.81
2023-04-28T07:16:59.638Z,22.82
2023-04-28T07:17:59.754Z,22.83
2023-04-28T07:18:59.731Z,22.83
2023-04-28T07:19:59.812Z,22.85
2023-04-28T07:20:59.845Z,22.85
2023-04-28T07:21:59.943Z,22.85
2023-04-28T07:22:59.971Z,22.86
2023-04-28T07:24:00.056Z,22.87
2023-04-28T07:25:00.114Z,22.87
2023-04-28T07:26:00.154Z,22.88
2023-04-28T07:27:00.202Z,22.90
2023-04-28T07:28:00.251Z,22.91
2023-04-28T07:29:00.311Z,22.92
2023-04-28T07:30:01.879Z,22.93
2023-04-28T07:31:00.384Z,22.94
2023-04-28T07:32:00.445Z,22.96
2023-04-28T07:33:00.405Z,22.97
2023-04-28T07:34:00.425Z,22.98
2023-04-28T07:35:00.360Z,22.98
2023-04-28T07:36:00.364Z,22.98
2023-04-28T07:37:00.340Z,23.00
2023-04-28T07:38:00.340Z,23.01
2023-04-28T07:39:00.299Z,23.02
2023-04-28T07:40:00.281Z,23.03
2023-04-28T07:41:00.313Z,23.04
2023-04-28T07:42:00.278Z,23.03
2023-04-28T07:43:00.566Z,23.00
2023-04-28T07:44:00.266Z,22.98
2023-04-28T07:45:00.268Z,22.98
2023-04-28T07:46:00.386Z,22.97
2023-04-28T07:47:00.280Z,22.94
2023-04-28T07:48:00.610Z,22.93
2023-04-28T07:49:00.262Z,22.94
2023-04-28T07:50:00.229Z,22.96
2023-04-28T07:51:00.200Z,22.97
2023-04-28T07:52:00.236Z,22.99
2023-04-28T07:53:00.231Z,23.00
2023-04-28T07:54:00.254Z,23.02
2023-04-28T07:55:00.199Z,23.04
2023-04-28T07:56:00.215Z,23.05
2023-04-28T07:57:00.304Z,23.06
2023-04-28T07:58:00.303Z,23.08
2023-04-28T07:59:00.484Z,23.10
2023-04-28T08:00:00.422Z,23.12
2023-04-28T08:01:00.438Z,23.13
2023-04-28T08:02:00.478Z,23.15
2023-04-28T08:03:00.597Z,23.17
2023-04-28T08:04:00.771Z,23.19
2023-04-28T08:05:00.858Z,23.20
2023-04-28T08:06:00.675Z,23.21
2023-04-28T08:07:00.556Z,23.21
2023-04-28T08:08:00.578Z,23.23
2023-04-28T08:09:00.645Z,23.24
2023-04-28T08:10:00.672Z,23.24
2023-04-28T08:11:00.692Z,23.26
2023-04-28T08:12:00.698Z,23.27
2023-04-28T08:13:00.793Z,23.28
2023-04-28T08:14:00.754Z,23.30
2023-04-28T08:15:00.794Z,23.30
2023-04-28T08:16:00.963Z,23.32
2023-04-28T08:17:00.788Z,23.34
2023-04-28T08:18:00.858Z,23.36
2023-04-28T08:19:00.903Z,23.37
2023-04-28T08:20:00.803Z,23.39
2023-04-28T08:21:00.849Z,23.39
2023-04-28T08:22:00.811Z,23.39
2023-04-28T08:23:00.844Z,23.41
2023-04-28T08:24:00.798Z,23.42
2023-04-28T08:25:00.843Z,23.44
2023-04-28T08:26:00.820Z,23.46
2023-04-28T08:27:00.815Z,23.49
2023-04-28T08:28:00.849Z,23.50
2023-04-28T08:29:00.829Z,23.51
2023-04-28T08:30:00.868Z,23.53
2023-04-28T08:31:00.920Z,23.55
2023-04-28T08:32:00.905Z,23.56
2023-04-28T08:33:00.992Z,23.58
2023-04-28T08:34:00.964Z,23.60
2023-04-28T08:35:01.057Z,23.62
2023-04-28T08:36:01.035Z,23.63
2023-04-28T08:37:01.012Z,23.64
2023-04-28T08:38:01.047Z,23.67
2023-04-28T08:39:01.105Z,23.69
2023-04-28T08:40:01.131Z,23.69
2023-04-28T08:41:01.206Z,23.72
2023-04-28T08:42:01.266Z,23.75
2023-04-28T08:43:01.443Z,23.75
2023-04-28T08:44:01.363Z,23.77
2023-04-28T08:45:01.438Z,23.76
2023-04-28T08:46:01.470Z,23.74
2023-04-28T08:47:01.548Z,23.72
2023-04-28T08:48:01.683Z,23.69
2023-04-28T08:49:01.679Z,23.67
2023-04-28T08:50:01.718Z,23.66
2023-04-28T08:51:01.791Z,23.65
2023-04-28T08:52:01.809Z,23.63
2023-04-28T08:53:01.867Z,23.60
2023-04-28T08:55:01.840Z,23.55
2023-04-28T08:56:01.808Z,23.53
2023-04-28T08:57:01.806Z,23.51
2023-04-28T08:58:01.786Z,23.49
2023-04-28T08:59:01.771Z,23.48
2023-04-28T09:00:01.758Z,23.48
2023-04-28T09:01:01.759Z,23.48
2023-04-28T09:02:01.825Z,23.48
2023-04-28T09:03:01.841Z,23.49
2023-04-28T09:04:01.934Z,23.49
2023-04-28T09:05:01.873Z,23.51
2023-04-28T09:06:01.895Z,23.50
2023-04-28T09:07:01.752Z,23.51
2023-04-28T09:08:02.115Z,23.51
2023-04-28T09:09:01.724Z,23.50
2023-04-28T09:10:01.680Z,23.51
2023-04-28T09:11:01.720Z,23.50
2023-04-28T09:12:01.680Z,23.50
2023-04-28T09:13:01.696Z,23.50
2023-04-28T09:14:01.668Z,23.49
2023-04-28T09:15:01.662Z,23.50
2023-04-28T09:16:01.702Z,23.49
2023-04-28T09:17:01.649Z,23.48
2023-04-28T09:18:01.714Z,23.47
2023-04-28T09:19:01.621Z,23.46
2023-04-28T09:20:01.621Z,23.46
2023-04-28T09:21:02.060Z,23.46
2023-04-28T09:22:05.695Z,23.45
2023-04-28T09:23:02.667Z,23.44
2023-04-28T09:24:01.612Z,23.44
2023-04-28T09:25:01.607Z,23.44
2023-04-28T09:26:01.595Z,23.45
2023-04-28T09:27:01.608Z,23.45
2023-04-28T09:28:02.608Z,23.46
2023-04-28T09:29:01.631Z,23.46
2023-04-28T09:30:01.597Z,23.46
2023-04-28T09:31:01.604Z,23.46
2023-04-28T09:32:01.628Z,23.47
2023-04-28T09:33:01.582Z,23.47
2023-04-28T09:34:01.522Z,23.46
2023-04-28T09:35:01.548Z,23.48
2023-04-28T09:36:01.509Z,23.48
2023-04-28T09:37:01.527Z,23.49
2023-04-28T09:38:01.524Z,23.50
2023-04-28T09:39:01.701Z,23.51
2023-04-28T09:40:01.516Z,23.52
2023-04-28T09:41:01.540Z,23.53
2023-04-28T09:42:01.518Z,23.56
2023-04-28T09:43:11.699Z,23.57
2023-04-28T09:44:02.505Z,23.58
2023-04-28T09:45:01.465Z,23.59
2023-04-28T09:46:01.594Z,23.61
2023-04-28T09:47:01.450Z,23.63
2023-04-28T09:48:01.467Z,23.66
2023-04-28T09:49:01.632Z,23.67
2023-04-28T09:50:01.463Z,23.69
2023-04-28T09:51:01.412Z,23.72
2023-04-28T09:52:01.412Z,23.72
2023-04-28T09:53:01.433Z,23.74
2023-04-28T09:54:01.423Z,23.75
2023-04-28T09:55:01.506Z,23.76
2023-04-28T09:56:01.547Z,23.78
2023-04-28T09:57:01.623Z,23.78
2023-04-28T09:58:01.672Z,23.75
2023-04-28T09:59:01.708Z,23.73
2023-04-28T10:00:01.787Z,23.72
2023-04-28T10:01:01.917Z,23.71
2023-04-28T10:02:15.438Z,23.69
2023-04-28T10:03:02.993Z,23.68
2023-04-28T10:04:01.979Z,23.68
2023-04-28T10:05:02.266Z,23.67
2023-04-28T10:06:01.840Z,23.67
2023-04-28T10:07:01.811Z,23.67
2023-04-28T10:08:01.792Z,23.68
2023-04-28T10:09:02.136Z,23.69
2023-04-28T10:10:01.817Z,23.70
2023-04-28T10:11:01.832Z,23.71
2023-04-28T10:12:01.815Z,23.71
2023-04-28T10:13:01.776Z,23.72
2023-04-28T10:14:01.770Z,23.72
2023-04-28T10:15:01.768Z,23.73
2023-04-28T10:16:01.789Z,23.73
2023-04-28T10:17:01.742Z,23.73
2023-04-28T10:18:01.878Z,23.74
2023-04-28T10:19:01.778Z,23.75
2023-04-28T10:20:01.872Z,23.77
2023-04-28T10:21:01.948Z,23.78
2023-04-28T10:22:02.004Z,23.79
2023-04-28T10:23:02.032Z,23.79
2023-04-28T10:24:02.074Z,23.80
2023-04-28T10:25:02.107Z,23.82
2023-04-28T10:26:02.282Z,23.84
2023-04-28T10:27:02.224Z,23.85
2023-04-28T10:28:02.250Z,23.85
2023-04-28T10:29:02.328Z,23.86
2023-04-28T10:30:02.504Z,23.87
2023-04-28T10:31:02.548Z,23.88
2023-04-28T10:32:02.503Z,23.89
2023-04-28T10:33:02.642Z,23.90
2023-04-28T10:34:02.650Z,23.91
2023-04-28T10:35:02.665Z,23.92
2023-04-28T10:36:02.742Z,23.94
2023-04-28T10:37:02.811Z,23.94
2023-04-28T10:38:02.837Z,23.94
2023-04-28T10:39:03.119Z,23.97
2023-04-28T10:40:02.938Z,23.98
2023-04-28T10:41:02.959Z,24.00
2023-04-28T10:42:02.992Z,24.00
2023-04-28T10:43:03.039Z,24.01
2023-04-28T10:44:03.058Z,24.04
2023-04-28T10:45:03.075Z,24.06
2023-04-28T10:46:03.183Z,24.07
2023-04-28T10:47:03.150Z,24.08
2023-04-28T10:48:03.259Z,24.08
2023-04-28T10:49:03.212Z,24.08
2023-04-28T10:50:03.236Z,24.07
2023-04-28T10:51:03.312Z,24.04
2023-04-28T10:52:03.278Z,24.03
2023-04-28T10:53:03.349Z,24.00
2023-04-28T10:54:03.393Z,23.99
2023-04-28T10:55:15.800Z,24.00
2023-04-28T10:56:04.469Z,24.00
2023-04-28T10:57:03.431Z,24.00
2023-04-28T10:58:03.461Z,24.02
2023-04-28T10:59:03.414Z,24.03
2023-04-28T11:00:03.406Z,24.03
2023-04-28T11:01:03.408Z,24.03
2023-04-28T11:02:03.375Z,24.02
2023-04-28T11:03:03.491Z,24.02
2023-04-28T11:04:03.612Z,24.01
2023-04-28T11:05:03.442Z,24.02
2023-04-28T11:06:03.327Z,24.03
2023-04-28T11:07:03.371Z,24.04
2023-04-28T11:08:03.443Z,24.04
2023-04-28T11:09:03.454Z,24.04
2023-04-28T11:10:03.495Z,24.03
2023-04-28T11:11:03.530Z,24.02
2023-04-28T11:12:03.678Z,24.02
2023-04-28T11:13:03.695Z,24.01
2023-04-28T11:14:04.666Z,24.00
2023-04-28T11:15:03.919Z,24.00
2023-04-28T11:16:03.858Z,24.00
2023-04-28T11:17:03.785Z,24.01
2023-04-28T11:18:03.851Z,24.00
2023-04-28T11:19:03.921Z,23.98
2023-04-28T11:20:03.956Z,23.97
2023-04-28T11:21:03.948Z,23.96
2023-04-28T11:22:04.010Z,23.96
2023-04-28T11:23:04.063Z,23.97
2023-04-28T11:24:04.103Z,23.98
2023-04-28T11:25:04.150Z,23.99
2023-04-28T11:26:04.165Z,24.01
2023-04-28T11:27:04.289Z,24.02
2023-04-28T11:28:04.311Z,24.03
2023-04-28T11:29:04.684Z,24.01
2023-04-28T11:30:04.344Z,24.01
2023-04-28T11:31:04.402Z,24.01
2023-04-28T11:32:04.605Z,24.00
2023-04-28T11:33:04.565Z,23.99
2023-04-28T11:34:04.669Z,23.99
2023-04-28T11:35:04.651Z,23.98
2023-04-28T11:36:04.591Z,23.97
2023-04-28T11:37:04.665Z,23.97
2023-04-28T11:38:04.693Z,23.96
2023-04-28T11:39:04.755Z,23.96
2023-04-28T11:40:04.828Z,23.96
2023-04-28T11:41:04.835Z,23.96
2023-04-28T11:42:04.896Z,23.97
2023-04-28T11:43:04.917Z,23.96
2023-04-28T11:44:04.965Z,23.96
2023-04-28T11:45:05.032Z,23.96
2023-04-28T11:46:05.100Z,23.96
2023-04-28T11:47:05.579Z,23.95
2023-04-28T11:48:05.193Z,23.94
2023-04-28T11:49:05.213Z,23.94
2023-04-28T11:50:05.204Z,23.95
2023-04-28T11:51:05.265Z,23.94
2023-04-28T11:52:05.323Z,23.96
2023-04-28T11:53:05.359Z,23.96
2023-04-28T11:54:05.367Z,23.96
2023-04-28T11:55:05.396Z,23.97
2023-04-28T11:56:05.436Z,23.98
2023-04-28T11:57:05.525Z,23.99
2023-04-28T11:58:05.521Z,24.00
2023-04-28T11:59:05.601Z,24.01
2023-04-28T12:00:05.626Z,24.00
2023-04-28T12:01:05.641Z,24.02
2023-04-28T12:02:05.766Z,24.02
2023-04-28T12:03:05.995Z,24.02
2023-04-28T12:04:05.835Z,24.02
2023-04-28T12:05:05.859Z,24.00
2023-04-28T12:06:05.868Z,23.99
2023-04-28T12:07:05.929Z,23.98
2023-04-28T12:08:05.911Z,23.97
2023-04-28T12:09:05.986Z,23.96
2023-04-28T12:10:05.984Z,23.93
2023-04-28T12:11:06.099Z,23.93
2023-04-28T12:12:06.077Z,23.93
2023-04-28T12:13:06.135Z,23.93
2023-04-28T12:14:06.229Z,23.92
2023-04-28T12:15:06.234Z,23.92
2023-04-28T12:16:06.330Z,23.92
2023-04-28T12:17:06.305Z,23.91
2023-04-28T12:18:06.381Z,23.91
2023-04-28T12:19:06.397Z,23.91
2023-04-28T12:20:06.491Z,23.91
2023-04-28T12:21:06.503Z,23.91
2023-04-28T12:22:06.517Z,23.90
2023-04-28T12:23:06.563Z,23.90
2023-04-28T12:24:06.608Z,23.90
2023-04-28T12:25:06.702Z,23.91
2023-04-28T12:26:06.726Z,23.90
2023-04-28T12:27:06.773Z,23.89
2023-04-28T12:28:06.789Z,23.90
2023-04-28T12:29:06.895Z,23.89
2023-04-28T12:30:06.931Z,23.89
2023-04-28T12:31:06.985Z,23.90
2023-04-28T12:32:07.010Z,23.91
2023-04-28T12:33:07.113Z,23.92
2023-04-28T12:34:07.363Z,23.92
2023-04-28T12:35:07.158Z,23.92
2023-04-28T12:36:07.235Z,23.91
2023-04-28T12:37:07.265Z,23.91
2023-04-28T12:38:07.277Z,23.90
2023-04-28T12:39:07.342Z,23.90
2023-04-28T12:40:07.462Z,23.90
2023-04-28T12:41:07.445Z,23.89
2023-04-28T12:42:07.503Z,23.89
2023-04-28T12:43:07.540Z,23.89
2023-04-28T12:44:07.583Z,23.88
2023-04-28T12:45:07.626Z,23.87
2023-04-28T12:46:07.738Z,23.86
2023-04-28T12:47:07.759Z,23.86
2023-04-28T12:48:07.826Z,23.86
2023-04-28T12:49:07.859Z,23.85
2023-04-28T12:50:08.005Z,23.85
2023-04-28T12:51:07.945Z,23.84
2023-04-28T12:52:07.968Z,23.84
2023-04-28T12:53:08.060Z,23.84
2023-04-28T12:54:09.727Z,23.83